sensor_id;sensor_type;location;lat;lon;timestamp;temperature;humidity
5492;DHT22;2768;53.540;10.224;2023-09-19T00:01:17;17.70;99.90
5492;DHT22;2768;53.540;10.224;2023-09-19T00:07:13;17.70;99.90
5492;DHT22;2768;53.540;10.224;2023-09-19T00:13:09;17.60;99.90
5492;DHT22;2768;53.540;10.224;2023-09-19T00:19:07;17.60;99.90
5492;DHT22;2768;53.540;10.224;2023-09-19T00:25:03;17.50;99.90
5492;DHT22;2768;53.540;10.224;2023-09-19T00:30:58;17.50;99.90
5492;DHT22;2768;53.540;10.224;2023-09-19T00:36:56;17.60;99.90
5492;DHT22;2768;53.540;10.224;2023-09-19T00:42:50;17.50;99.90
5492;DHT22;2768;53.540;10.224;2023-09-19T00:48:44;17.50;99.90
5492;DHT22;2768;53.540;10.224;2023-09-19T00:54:39;17.40;99.90
5492;DHT22;2768;53.540;10.224;2023-09-19T01:00:34;17.40;99.90
5492;DHT22;2768;53.540;10.224;2023-09-19T01:06:28;17.30;99.90
5492;DHT22;2768;53.540;10.224;2023-09-19T01:12:28;17.40;99.90
5492;DHT22;2768;53.540;10.224;2023-09-19T01:18:33;17.40;99.90
5492;DHT22;2768;53.540;10.224;2023-09-19T01:25:03;17.30;1.00
5492;DHT22;2768;53.540;10.224;2023-09-19T01:31:02;17.40;1.00
5492;DHT22;2768;53.540;10.224;2023-09-19T01:36:56;17.40;1.00
5492;DHT22;2768;53.540;10.224;2023-09-19T01:42:58;17.40;1.00
5492;DHT22;2768;53.540;10.224;2023-09-19T01:49:00;17.30;1.00
5492;DHT22;2768;53.540;10.224;2023-09-19T01:55:03;17.30;1.00
5492;DHT22;2768;53.540;10.224;2023-09-19T02:01:01;17.30;1.00
5492;DHT22;2768;53.540;10.224;2023-09-19T02:06:57;17.20;1.00
5492;DHT22;2768;53.540;10.224;2023-09-19T02:12:51;17.30;1.00
5492;DHT22;2768;53.540;10.224;2023-09-19T02:18:45;17.30;99.90
5492;DHT22;2768;53.540;10.224;2023-09-19T02:24:40;17.20;99.90
5492;DHT22;2768;53.540;10.224;2023-09-19T02:30:33;17.30;99.90
5492;DHT22;2768;53.540;10.224;2023-09-19T02:36:27;17.20;99.90
5492;DHT22;2768;53.540;10.224;2023-09-19T02:42:24;17.30;99.90
5492;DHT22;2768;53.540;10.224;2023-09-19T02:48:18;17.20;99.90
5492;DHT22;2768;53.540;10.224;2023-09-19T02:54:12;17.10;99.90
5492;DHT22;2768;53.540;10.224;2023-09-19T03:00:10;17.20;99.90
5492;DHT22;2768;53.540;10.224;2023-09-19T03:06:05;17.00;99.90
5492;DHT22;2768;53.540;10.224;2023-09-19T03:12:01;17.10;99.90
5492;DHT22;2768;53.540;10.224;2023-09-19T03:17:59;17.10;99.90
5492;DHT22;2768;53.540;10.224;2023-09-19T03:23:53;17.10;99.90
5492;DHT22;2768;53.540;10.224;2023-09-19T03:29:47;17.00;99.90
5492;DHT22;2768;53.540;10.224;2023-09-19T03:35:43;17.00;99.90
5492;DHT22;2768;53.540;10.224;2023-09-19T03:41:46;16.90;99.90
5492;DHT22;2768;53.540;10.224;2023-09-19T03:47:40;16.70;99.90
5492;DHT22;2768;53.540;10.224;2023-09-19T03:53:36;16.50;99.90
5492;DHT22;2768;53.540;10.224;2023-09-19T03:59:31;16.70;99.90
5492;DHT22;2768;53.540;10.224;2023-09-19T04:05:24;16.50;99.90
5492;DHT22;2768;53.540;10.224;2023-09-19T04:11:20;16.40;99.90
5492;DHT22;2768;53.540;10.224;2023-09-19T04:17:13;16.30;99.90
5492;DHT22;2768;53.540;10.224;2023-09-19T04:23:07;16.20;99.90
5492;DHT22;2768;53.540;10.224;2023-09-19T04:29:04;16.10;99.90
5492;DHT22;2768;53.540;10.224;2023-09-19T04:35:16;16.10;99.90
5492;DHT22;2768;53.540;10.224;2023-09-19T04:41:10;15.90;99.90
5492;DHT22;2768;53.540;10.224;2023-09-19T04:47:05;15.80;99.90
5492;DHT22;2768;53.540;10.224;2023-09-19T04:52:59;15.80;99.90
5492;DHT22;2768;53.540;10.224;2023-09-19T04:58:52;15.70;99.90
5492;DHT22;2768;53.540;10.224;2023-09-19T05:04:48;15.60;99.90
5492;DHT22;2768;53.540;10.224;2023-09-19T05:10:41;15.50;99.90
5492;DHT22;2768;53.540;10.224;2023-09-19T05:16:35;15.60;99.90
5492;DHT22;2768;53.540;10.224;2023-09-19T05:22:29;15.60;99.90
5492;DHT22;2768;53.540;10.224;2023-09-19T05:28:24;15.50;99.90
5492;DHT22;2768;53.540;10.224;2023-09-19T05:34:18;15.60;99.90
5492;DHT22;2768;53.540;10.224;2023-09-19T05:40:13;15.50;99.90
5492;DHT22;2768;53.540;10.224;2023-09-19T05:46:06;15.50;99.90
5492;DHT22;2768;53.540;10.224;2023-09-19T05:52:00;15.50;99.90
5492;DHT22;2768;53.540;10.224;2023-09-19T05:57:55;15.50;99.90
5492;DHT22;2768;53.540;10.224;2023-09-19T06:03:48;15.50;99.90
5492;DHT22;2768;53.540;10.224;2023-09-19T06:09:43;15.40;99.90
5492;DHT22;2768;53.540;10.224;2023-09-19T06:15:38;15.40;99.90
5492;DHT22;2768;53.540;10.224;2023-09-19T06:21:32;15.40;99.90
5492;DHT22;2768;53.540;10.224;2023-09-19T06:27:26;15.50;99.90
5492;DHT22;2768;53.540;10.224;2023-09-19T06:33:22;15.50;99.90
5492;DHT22;2768;53.540;10.224;2023-09-19T06:39:16;15.60;99.90
5492;DHT22;2768;53.540;10.224;2023-09-19T06:45:10;15.70;99.90
5492;DHT22;2768;53.540;10.224;2023-09-19T06:51:07;15.70;99.90
5492;DHT22;2768;53.540;10.224;2023-09-19T06:57:00;15.80;99.90
5492;DHT22;2768;53.540;10.224;2023-09-19T07:02:57;15.80;99.90
5492;DHT22;2768;53.540;10.224;2023-09-19T07:08:54;15.80;99.90
5492;DHT22;2768;53.540;10.224;2023-09-19T07:14:48;15.90;99.90
5492;DHT22;2768;53.540;10.224;2023-09-19T07:20:43;15.90;99.90
5492;DHT22;2768;53.540;10.224;2023-09-19T07:26:42;16.00;99.90
5492;DHT22;2768;53.540;10.224;2023-09-19T07:32:35;16.00;99.90
5492;DHT22;2768;53.540;10.224;2023-09-19T07:38:30;16.00;99.90
5492;DHT22;2768;53.540;10.224;2023-09-19T07:44:27;16.00;99.90
5492;DHT22;2768;53.540;10.224;2023-09-19T07:50:20;16.10;99.90
5492;DHT22;2768;53.540;10.224;2023-09-19T07:56:14;16.10;99.90
5492;DHT22;2768;53.540;10.224;2023-09-19T08:02:11;16.10;99.90
5492;DHT22;2768;53.540;10.224;2023-09-19T08:08:08;16.20;99.90
5492;DHT22;2768;53.540;10.224;2023-09-19T08:14:01;16.10;99.90
5492;DHT22;2768;53.540;10.224;2023-09-19T08:19:57;16.10;99.90
5492;DHT22;2768;53.540;10.224;2023-09-19T08:25:50;16.00;99.90
5492;DHT22;2768;53.540;10.224;2023-09-19T08:31:44;16.10;99.90
5492;DHT22;2768;53.540;10.224;2023-09-19T08:37:42;16.10;99.90
5492;DHT22;2768;53.540;10.224;2023-09-19T08:43:37;16.20;99.90
5492;DHT22;2768;53.540;10.224;2023-09-19T08:49:36;16.20;99.90
5492;DHT22;2768;53.540;10.224;2023-09-19T08:55:40;16.20;99.90
5492;DHT22;2768;53.540;10.224;2023-09-19T09:01:35;16.20;99.90
5492;DHT22;2768;53.540;10.224;2023-09-19T09:07:30;16.30;99.90
5492;DHT22;2768;53.540;10.224;2023-09-19T09:13:25;16.30;99.90
5492;DHT22;2768;53.540;10.224;2023-09-19T09:19:20;16.40;99.90
5492;DHT22;2768;53.540;10.224;2023-09-19T09:25:17;16.50;99.90
5492;DHT22;2768;53.540;10.224;2023-09-19T09:31:22;16.50;99.90
5492;DHT22;2768;53.540;10.224;2023-09-19T09:37:19;16.60;99.90
5492;DHT22;2768;53.540;10.224;2023-09-19T09:43:26;16.70;99.90
5492;DHT22;2768;53.540;10.224;2023-09-19T09:49:24;17.00;99.90
5492;DHT22;2768;53.540;10.224;2023-09-19T09:55:19;17.30;99.90
5492;DHT22;2768;53.540;10.224;2023-09-19T10:01:12;17.40;99.90
5492;DHT22;2768;53.540;10.224;2023-09-19T10:07:09;17.70;99.90
5492;DHT22;2768;53.540;10.224;2023-09-19T10:13:03;18.00;92.10
5492;DHT22;2768;53.540;10.224;2023-09-19T10:19:02;17.80;72.20
5492;DHT22;2768;53.540;10.224;2023-09-19T10:25:02;18.00;69.70
5492;DHT22;2768;53.540;10.224;2023-09-19T10:30:59;17.80;50.70
5492;DHT22;2768;53.540;10.224;2023-09-19T10:36:54;17.80;37.80
5492;DHT22;2768;53.540;10.224;2023-09-19T10:42:50;17.80;39.20
5492;DHT22;2768;53.540;10.224;2023-09-19T10:48:44;17.80;37.50
5492;DHT22;2768;53.540;10.224;2023-09-19T10:54:46;18.10;35.90
5492;DHT22;2768;53.540;10.224;2023-09-19T11:01:02;17.90;24.30
5492;DHT22;2768;53.540;10.224;2023-09-19T11:07:03;17.80;27.60
5492;DHT22;2768;53.540;10.224;2023-09-19T11:13:23;17.90;34.00
5492;DHT22;2768;53.540;10.224;2023-09-19T11:19:19;18.00;26.80
5492;DHT22;2768;53.540;10.224;2023-09-19T11:25:43;17.90;29.90
5492;DHT22;2768;53.540;10.224;2023-09-19T11:31:44;18.00;18.60
5492;DHT22;2768;53.540;10.224;2023-09-19T11:38:05;17.90;18.90
5492;DHT22;2768;53.540;10.224;2023-09-19T11:44:31;17.90;16.60
5492;DHT22;2768;53.540;10.224;2023-09-19T11:50:27;18.10;11.60
5492;DHT22;2768;53.540;10.224;2023-09-19T11:56:23;18.20;12.60
5492;DHT22;2768;53.540;10.224;2023-09-19T12:02:31;17.80;13.00
5492;DHT22;2768;53.540;10.224;2023-09-19T12:08:29;17.80;14.30
5492;DHT22;2768;53.540;10.224;2023-09-19T12:14:24;18.10;22.50
5492;DHT22;2768;53.540;10.224;2023-09-19T12:20:18;18.00;20.00
5492;DHT22;2768;53.540;10.224;2023-09-19T12:26:12;18.20;28.40
5492;DHT22;2768;53.540;10.224;2023-09-19T12:32:08;18.40;27.10
5492;DHT22;2768;53.540;10.224;2023-09-19T12:38:01;18.30;19.10
5492;DHT22;2768;53.540;10.224;2023-09-19T12:43:56;18.40;12.80
5492;DHT22;2768;53.540;10.224;2023-09-19T12:50:24;18.80;13.10
5492;DHT22;2768;53.540;10.224;2023-09-19T12:56:21;18.70;8.70
5492;DHT22;2768;53.540;10.224;2023-09-19T13:02:15;18.90;6.70
5492;DHT22;2768;53.540;10.224;2023-09-19T13:08:28;18.70;7.00
5492;DHT22;2768;53.540;10.224;2023-09-19T13:14:26;19.30;4.30
5492;DHT22;2768;53.540;10.224;2023-09-19T13:20:22;19.00;1.00
5492;DHT22;2768;53.540;10.224;2023-09-19T13:26:21;18.80;1.00
5492;DHT22;2768;53.540;10.224;2023-09-19T13:32:14;19.30;1.00
5492;DHT22;2768;53.540;10.224;2023-09-19T13:38:08;19.70;1.00
5492;DHT22;2768;53.540;10.224;2023-09-19T13:44:05;20.10;1.00
5492;DHT22;2768;53.540;10.224;2023-09-19T13:50:02;19.90;1.00
5492;DHT22;2768;53.540;10.224;2023-09-19T13:55:56;19.80;1.00
5492;DHT22;2768;53.540;10.224;2023-09-19T14:01:51;20.30;1.00
5492;DHT22;2768;53.540;10.224;2023-09-19T14:07:46;20.40;1.00
5492;DHT22;2768;53.540;10.224;2023-09-19T14:13:40;20.80;1.00
5492;DHT22;2768;53.540;10.224;2023-09-19T14:19:35;21.20;1.00
5492;DHT22;2768;53.540;10.224;2023-09-19T14:25:29;20.50;1.00
5492;DHT22;2768;53.540;10.224;2023-09-19T14:31:23;20.90;1.00
5492;DHT22;2768;53.540;10.224;2023-09-19T14:37:19;21.30;1.00
5492;DHT22;2768;53.540;10.224;2023-09-19T14:43:13;21.00;1.00
5492;DHT22;2768;53.540;10.224;2023-09-19T14:49:06;21.00;1.00
5492;DHT22;2768;53.540;10.224;2023-09-19T14:55:04;20.60;1.00
5492;DHT22;2768;53.540;10.224;2023-09-19T15:01:04;20.60;1.00
5492;DHT22;2768;53.540;10.224;2023-09-19T15:06:58;20.30;1.00
5492;DHT22;2768;53.540;10.224;2023-09-19T15:12:53;19.80;1.00
5492;DHT22;2768;53.540;10.224;2023-09-19T15:18:46;19.40;1.00
5492;DHT22;2768;53.540;10.224;2023-09-19T15:24:40;19.30;1.00
5492;DHT22;2768;53.540;10.224;2023-09-19T15:30:37;19.10;1.00
5492;DHT22;2768;53.540;10.224;2023-09-19T15:36:31;19.00;1.00
5492;DHT22;2768;53.540;10.224;2023-09-19T15:42:24;18.90;1.00
5492;DHT22;2768;53.540;10.224;2023-09-19T15:48:19;18.90;1.00
5492;DHT22;2768;53.540;10.224;2023-09-19T15:54:14;18.90;1.00
5492;DHT22;2768;53.540;10.224;2023-09-19T16:00:09;18.90;1.00
5492;DHT22;2768;53.540;10.224;2023-09-19T16:06:09;18.80;1.00
5492;DHT22;2768;53.540;10.224;2023-09-19T16:12:04;18.80;1.00
5492;DHT22;2768;53.540;10.224;2023-09-19T16:17:57;18.80;1.00
5492;DHT22;2768;53.540;10.224;2023-09-19T16:23:55;18.80;1.00
5492;DHT22;2768;53.540;10.224;2023-09-19T16:29:48;18.80;1.00
5492;DHT22;2768;53.540;10.224;2023-09-19T16:35:42;18.70;1.00
5492;DHT22;2768;53.540;10.224;2023-09-19T16:41:36;18.70;1.00
5492;DHT22;2768;53.540;10.224;2023-09-19T16:47:30;18.70;1.00
5492;DHT22;2768;53.540;10.224;2023-09-19T16:53:24;18.60;1.00
5492;DHT22;2768;53.540;10.224;2023-09-19T16:59:19;18.70;1.00
5492;DHT22;2768;53.540;10.224;2023-09-19T17:05:16;18.60;1.00
5492;DHT22;2768;53.540;10.224;2023-09-19T17:11:12;18.60;1.00
5492;DHT22;2768;53.540;10.224;2023-09-19T17:17:08;18.60;1.00
5492;DHT22;2768;53.540;10.224;2023-09-19T17:23:03;18.60;1.00
5492;DHT22;2768;53.540;10.224;2023-09-19T17:28:57;18.60;1.00
5492;DHT22;2768;53.540;10.224;2023-09-19T17:34:51;18.60;1.00
5492;DHT22;2768;53.540;10.224;2023-09-19T17:40:45;18.60;1.00
5492;DHT22;2768;53.540;10.224;2023-09-19T17:46:38;18.60;1.00
5492;DHT22;2768;53.540;10.224;2023-09-19T17:52:33;18.60;1.00
5492;DHT22;2768;53.540;10.224;2023-09-19T17:58:26;18.60;1.00
5492;DHT22;2768;53.540;10.224;2023-09-19T18:04:20;18.60;1.00
5492;DHT22;2768;53.540;10.224;2023-09-19T18:10:15;18.60;1.00
5492;DHT22;2768;53.540;10.224;2023-09-19T18:16:09;18.60;1.00
5492;DHT22;2768;53.540;10.224;2023-09-19T18:22:03;18.60;1.00
5492;DHT22;2768;53.540;10.224;2023-09-19T18:27:58;18.70;1.00
5492;DHT22;2768;53.540;10.224;2023-09-19T18:33:52;18.60;1.00
5492;DHT22;2768;53.540;10.224;2023-09-19T18:39:46;18.70;1.00
5492;DHT22;2768;53.540;10.224;2023-09-19T18:45:41;18.60;1.00
5492;DHT22;2768;53.540;10.224;2023-09-19T18:51:35;18.70;1.00
5492;DHT22;2768;53.540;10.224;2023-09-19T18:57:29;18.60;1.00
5492;DHT22;2768;53.540;10.224;2023-09-19T19:03:23;18.60;1.00
5492;DHT22;2768;53.540;10.224;2023-09-19T19:09:17;18.60;1.00
5492;DHT22;2768;53.540;10.224;2023-09-19T19:15:11;18.60;1.00
5492;DHT22;2768;53.540;10.224;2023-09-19T19:21:07;18.60;1.00
5492;DHT22;2768;53.540;10.224;2023-09-19T19:27:02;18.60;1.00
5492;DHT22;2768;53.540;10.224;2023-09-19T19:32:56;18.60;1.20
5492;DHT22;2768;53.540;10.224;2023-09-19T19:38:50;18.50;4.10
5492;DHT22;2768;53.540;10.224;2023-09-19T19:44:44;18.50;6.60
5492;DHT22;2768;53.540;10.224;2023-09-19T19:50:38;18.50;9.90
5492;DHT22;2768;53.540;10.224;2023-09-19T19:56:35;18.50;12.80
5492;DHT22;2768;53.540;10.224;2023-09-19T20:02:30;18.50;12.90
5492;DHT22;2768;53.540;10.224;2023-09-19T20:08:26;18.50;14.80
5492;DHT22;2768;53.540;10.224;2023-09-19T20:14:22;18.50;18.80
5492;DHT22;2768;53.540;10.224;2023-09-19T20:20:15;18.50;20.70
5492;DHT22;2768;53.540;10.224;2023-09-19T20:26:10;18.50;22.70
5492;DHT22;2768;53.540;10.224;2023-09-19T20:32:05;18.50;25.90
5492;DHT22;2768;53.540;10.224;2023-09-19T20:38:00;18.40;27.60
5492;DHT22;2768;53.540;10.224;2023-09-19T20:43:55;18.40;30.60
5492;DHT22;2768;53.540;10.224;2023-09-19T20:49:49;18.40;32.30
5492;DHT22;2768;53.540;10.224;2023-09-19T20:55:43;18.40;35.20
5492;DHT22;2768;53.540;10.224;2023-09-19T21:01:37;18.30;39.90
5492;DHT22;2768;53.540;10.224;2023-09-19T21:07:31;18.30;44.00
5492;DHT22;2768;53.540;10.224;2023-09-19T21:13:24;18.30;46.50
5492;DHT22;2768;53.540;10.224;2023-09-19T21:19:20;18.30;48.00
5492;DHT22;2768;53.540;10.224;2023-09-19T21:25:15;18.30;51.10
5492;DHT22;2768;53.540;10.224;2023-09-19T21:31:09;18.30;53.20
5492;DHT22;2768;53.540;10.224;2023-09-19T21:37:02;18.30;54.60
5492;DHT22;2768;53.540;10.224;2023-09-19T21:42:56;18.20;58.10
5492;DHT22;2768;53.540;10.224;2023-09-19T21:48:51;18.20;62.50
5492;DHT22;2768;53.540;10.224;2023-09-19T21:54:46;18.20;66.10
5492;DHT22;2768;53.540;10.224;2023-09-19T22:00:41;18.20;80.80
5492;DHT22;2768;53.540;10.224;2023-09-19T22:06:37;18.10;84.80
5492;DHT22;2768;53.540;10.224;2023-09-19T22:12:31;18.10;90.40
5492;DHT22;2768;53.540;10.224;2023-09-19T22:18:26;18.00;99.90
5492;DHT22;2768;53.540;10.224;2023-09-19T22:24:19;17.90;99.90
5492;DHT22;2768;53.540;10.224;2023-09-19T22:30:13;17.70;99.90
5492;DHT22;2768;53.540;10.224;2023-09-19T22:36:12;17.60;99.90
5492;DHT22;2768;53.540;10.224;2023-09-19T22:42:06;17.60;99.90
5492;DHT22;2768;53.540;10.224;2023-09-19T22:48:04;17.50;99.90
5492;DHT22;2768;53.540;10.224;2023-09-19T22:54:02;17.50;99.90
5492;DHT22;2768;53.540;10.224;2023-09-19T23:00:00;17.40;99.90
5492;DHT22;2768;53.540;10.224;2023-09-19T23:05:55;17.40;99.90
5492;DHT22;2768;53.540;10.224;2023-09-19T23:11:55;17.40;99.90
5492;DHT22;2768;53.540;10.224;2023-09-19T23:17:53;17.40;99.90
5492;DHT22;2768;53.540;10.224;2023-09-19T23:23:46;17.50;99.90
5492;DHT22;2768;53.540;10.224;2023-09-19T23:29:41;17.50;99.90
5492;DHT22;2768;53.540;10.224;2023-09-19T23:35:34;17.50;99.90
5492;DHT22;2768;53.540;10.224;2023-09-19T23:41:28;17.50;99.90
5492;DHT22;2768;53.540;10.224;2023-09-19T23:47:24;17.60;99.90
5492;DHT22;2768;53.540;10.224;2023-09-19T23:53:19;17.60;99.90
5492;DHT22;2768;53.540;10.224;2023-09-19T23:59:12;17.60;99.90
